sensor_id;sensor_type;location;lat;lon;timestamp;pressure;altitude;pressure_sealevel;temperature;humidity
39105;BME280;46464;51.154;13.812;2023-05-10T00:00:00;52014.88;;;-146.96;49.76
39105;BME280;46464;51.154;13.812;2023-05-10T00:02:26;52012.84;;;-146.96;50.23
39105;BME280;46464;51.154;13.812;2023-05-10T00:04:53;51998.63;;;-146.96;50.29
39105;BME280;46464;51.154;13.812;2023-05-10T00:07:19;52004.72;;;-146.96;50.18
39105;BME280;46464;51.154;13.812;2023-05-10T00:09:46;51988.44;;;-146.96;50.55
39105;BME280;46464;51.154;13.812;2023-05-10T00:12:12;52016.94;;;-146.96;50.32
39105;BME280;46464;51.154;13.812;2023-05-10T00:14:39;51976.22;;;-146.96;50.16
39105;BME280;46464;51.154;13.812;2023-05-10T00:17:05;51986.41;;;-146.96;50.02
39105;BME280;46464;51.154;13.812;2023-05-10T00:19:32;52006.75;;;-146.96;49.91
39105;BME280;46464;51.154;13.812;2023-05-10T00:21:58;52018.97;;;-146.96;49.93
39105;BME280;46464;51.154;13.812;2023-05-10T00:24:25;52004.72;;;-146.96;49.82
39105;BME280;46464;51.154;13.812;2023-05-10T00:26:52;51992.50;;;-146.96;49.77
39105;BME280;46464;51.154;13.812;2023-05-10T00:29:18;52012.84;;;-146.96;49.62
39105;BME280;46464;51.154;13.812;2023-05-10T00:31:45;52000.66;;;-146.96;49.53
39105;BME280;46464;51.154;13.812;2023-05-10T00:34:12;52027.09;;;-146.96;49.70
39105;BME280;46464;51.154;13.812;2023-05-10T00:36:38;51992.50;;;-146.96;49.58
39105;BME280;46464;51.154;13.812;2023-05-10T00:39:05;51972.16;;;-146.96;49.69
39105;BME280;46464;51.154;13.812;2023-05-10T00:41:32;51994.53;;;-146.96;49.69
39105;BME280;46464;51.154;13.812;2023-05-10T00:43:58;52014.88;;;-146.96;49.64
39105;BME280;46464;51.154;13.812;2023-05-10T00:46:25;52021.00;;;-146.96;49.95
39105;BME280;46464;51.154;13.812;2023-05-10T00:48:52;52016.94;;;-146.96;49.97
39105;BME280;46464;51.154;13.812;2023-05-10T00:51:18;51994.53;;;-146.96;49.96
39105;BME280;46464;51.154;13.812;2023-05-10T00:53:45;52010.81;;;-146.96;50.40
39105;BME280;46464;51.154;13.812;2023-05-10T00:56:12;52016.94;;;-146.96;50.21
39105;BME280;46464;51.154;13.812;2023-05-10T00:58:39;52012.84;;;-146.96;49.92
39105;BME280;46464;51.154;13.812;2023-05-10T01:01:06;52008.78;;;-146.96;50.16
39105;BME280;46464;51.154;13.812;2023-05-10T01:03:33;52025.06;;;-146.96;50.17
39105;BME280;46464;51.154;13.812;2023-05-10T01:05:59;52023.03;;;-146.96;49.97
39105;BME280;46464;51.154;13.812;2023-05-10T01:08:26;51996.59;;;-146.96;50.21
39105;BME280;46464;51.154;13.812;2023-05-10T01:10:54;52027.09;;;-146.96;50.33
39105;BME280;46464;51.154;13.812;2023-05-10T01:13:36;52029.13;;;-146.96;50.58
39105;BME280;46464;51.154;13.812;2023-05-10T01:16:04;52016.94;;;-146.96;50.44
39105;BME280;46464;51.154;13.812;2023-05-10T01:18:33;52027.09;;;-146.96;50.94
39105;BME280;46464;51.154;13.812;2023-05-10T01:23:47;52027.09;;;-146.96;50.85
39105;BME280;46464;51.154;13.812;2023-05-10T01:32:16;52033.19;;;-146.96;51.07
39105;BME280;46464;51.154;13.812;2023-05-10T01:35:03;52035.25;;;-146.96;51.09
39105;BME280;46464;51.154;13.812;2023-05-10T01:37:43;52008.78;;;-146.96;51.46
39105;BME280;46464;51.154;13.812;2023-05-10T01:40:30;52033.19;;;-146.96;51.34
39105;BME280;46464;51.154;13.812;2023-05-10T01:43:04;52035.25;;;-146.96;51.70
39105;BME280;46464;51.154;13.812;2023-05-10T01:45:42;52027.09;;;-146.96;51.58
39105;BME280;46464;51.154;13.812;2023-05-10T01:48:14;52029.13;;;-146.96;51.44
39105;BME280;46464;51.154;13.812;2023-05-10T01:50:43;52023.03;;;-146.96;51.48
39105;BME280;46464;51.154;13.812;2023-05-10T01:53:11;52047.44;;;-146.96;51.57
39105;BME280;46464;51.154;13.812;2023-05-10T01:55:43;52059.66;;;-146.96;51.63
39105;BME280;46464;51.154;13.812;2023-05-10T01:58:17;52057.63;;;-146.96;51.80
39105;BME280;46464;51.154;13.812;2023-05-10T02:00:46;52039.31;;;-146.96;52.27
39105;BME280;46464;51.154;13.812;2023-05-10T02:03:14;52041.34;;;-146.96;52.15
39105;BME280;46464;51.154;13.812;2023-05-10T02:05:43;52047.44;;;-146.96;52.16
39105;BME280;46464;51.154;13.812;2023-05-10T02:08:11;52031.16;;;-146.96;52.36
39105;BME280;46464;51.154;13.812;2023-05-10T02:10:40;52080.00;;;-146.96;52.54
39105;BME280;46464;51.154;13.812;2023-05-10T02:13:09;52018.97;;;-146.96;52.54
39105;BME280;46464;51.154;13.812;2023-05-10T02:15:37;52086.09;;;-146.96;52.80
39105;BME280;46464;51.154;13.812;2023-05-10T02:18:05;52057.63;;;-146.96;52.77
39105;BME280;46464;51.154;13.812;2023-05-10T02:20:33;52045.41;;;-146.96;53.11
39105;BME280;46464;51.154;13.812;2023-05-10T02:23:02;52033.19;;;-146.96;52.97
39105;BME280;46464;51.154;13.812;2023-05-10T02:25:29;52002.69;;;-146.96;53.02
39105;BME280;46464;51.154;13.812;2023-05-10T02:28:00;52012.84;;;-146.96;53.48
39105;BME280;46464;51.154;13.812;2023-05-10T02:30:28;52071.84;;;-146.96;53.34
39105;BME280;46464;51.154;13.812;2023-05-10T02:32:57;52033.19;;;-146.96;53.48
39105;BME280;46464;51.154;13.812;2023-05-10T02:35:26;52053.53;;;-146.96;53.59
39105;BME280;46464;51.154;13.812;2023-05-10T02:37:53;52033.19;;;-146.96;53.51
39105;BME280;46464;51.154;13.812;2023-05-10T02:40:21;52059.66;;;-146.96;53.60
39105;BME280;46464;51.154;13.812;2023-05-10T02:42:50;52041.34;;;-146.96;54.04
39105;BME280;46464;51.154;13.812;2023-05-10T02:45:20;52049.47;;;-146.96;54.04
39105;BME280;46464;51.154;13.812;2023-05-10T02:47:48;52075.94;;;-146.96;54.15
39105;BME280;46464;51.154;13.812;2023-05-10T02:50:14;52043.38;;;-146.96;54.34
39105;BME280;46464;51.154;13.812;2023-05-10T02:52:50;52055.59;;;-146.96;54.18
39105;BME280;46464;51.154;13.812;2023-05-10T02:55:24;52061.69;;;-146.96;54.50
39105;BME280;46464;51.154;13.812;2023-05-10T02:57:56;52102.38;;;-146.96;54.33
39105;BME280;46464;51.154;13.812;2023-05-10T03:00:24;52077.97;;;-146.96;54.68
39105;BME280;46464;51.154;13.812;2023-05-10T03:02:51;52039.31;;;-146.96;54.81
39105;BME280;46464;51.154;13.812;2023-05-10T03:05:18;52051.50;;;-146.96;54.67
39105;BME280;46464;51.154;13.812;2023-05-10T03:07:45;52059.66;;;-146.96;54.82
39105;BME280;46464;51.154;13.812;2023-05-10T03:10:12;52029.13;;;-146.96;54.84
39105;BME280;46464;51.154;13.812;2023-05-10T03:16:15;52102.38;;;-146.96;54.91
39105;BME280;46464;51.154;13.812;2023-05-10T03:18:44;52088.13;;;-146.96;55.07
39105;BME280;46464;51.154;13.812;2023-05-10T03:21:16;52055.59;;;-146.96;55.38
39105;BME280;46464;51.154;13.812;2023-05-10T03:23:47;52084.06;;;-146.96;55.26
39105;BME280;46464;51.154;13.812;2023-05-10T03:26:20;52063.72;;;-146.96;55.35
39105;BME280;46464;51.154;13.812;2023-05-10T03:28:50;52037.28;;;-146.96;55.55
39105;BME280;46464;51.154;13.812;2023-05-10T03:31:18;52069.81;;;-146.96;55.62
39105;BME280;46464;51.154;13.812;2023-05-10T03:33:49;52045.41;;;-146.96;55.58
39105;BME280;46464;51.154;13.812;2023-05-10T03:36:16;52077.97;;;-146.96;55.43
39105;BME280;46464;51.154;13.812;2023-05-10T03:38:43;52061.69;;;-146.96;55.82
39105;BME280;46464;51.154;13.812;2023-05-10T03:41:09;52073.91;;;-146.96;55.89
39105;BME280;46464;51.154;13.812;2023-05-10T03:43:35;52084.06;;;-146.96;55.79
39105;BME280;46464;51.154;13.812;2023-05-10T03:46:04;52090.16;;;-146.96;56.03
39105;BME280;46464;51.154;13.812;2023-05-10T03:48:33;52073.91;;;-146.96;56.21
39105;BME280;46464;51.154;13.812;2023-05-10T03:51:00;52080.00;;;-146.96;56.13
39105;BME280;46464;51.154;13.812;2023-05-10T03:53:26;52045.41;;;-146.96;56.22
39105;BME280;46464;51.154;13.812;2023-05-10T03:55:53;52069.81;;;-146.96;56.38
39105;BME280;46464;51.154;13.812;2023-05-10T03:58:19;52112.56;;;-146.96;56.31
39105;BME280;46464;51.154;13.812;2023-05-10T04:00:46;52063.72;;;-146.96;56.34
39105;BME280;46464;51.154;13.812;2023-05-10T04:03:13;52061.69;;;-146.96;56.51
39105;BME280;46464;51.154;13.812;2023-05-10T04:05:39;52086.09;;;-146.96;56.48
39105;BME280;46464;51.154;13.812;2023-05-10T04:08:06;52104.41;;;-146.96;56.40
39105;BME280;46464;51.154;13.812;2023-05-10T04:10:32;52057.63;;;-146.96;56.39
39105;BME280;46464;51.154;13.812;2023-05-10T04:12:59;52071.84;;;-146.96;55.93
39105;BME280;46464;51.154;13.812;2023-05-10T04:15:25;52098.31;;;-146.96;56.17
39105;BME280;46464;51.154;13.812;2023-05-10T04:17:52;52090.16;;;-146.96;56.17
39105;BME280;46464;51.154;13.812;2023-05-10T04:20:19;52047.44;;;-146.96;56.20
39105;BME280;46464;51.154;13.812;2023-05-10T04:22:46;52110.53;;;-146.96;56.21
39105;BME280;46464;51.154;13.812;2023-05-10T04:25:13;52049.47;;;-146.96;55.99
39105;BME280;46464;51.154;13.812;2023-05-10T04:27:39;52061.69;;;-146.96;56.18
39105;BME280;46464;51.154;13.812;2023-05-10T04:30:06;52045.41;;;-146.96;56.08
39105;BME280;46464;51.154;13.812;2023-05-10T04:32:33;52055.59;;;-146.96;55.95
39105;BME280;46464;51.154;13.812;2023-05-10T04:35:00;52055.59;;;-146.96;55.89
39105;BME280;46464;51.154;13.812;2023-05-10T04:37:26;52041.34;;;-146.96;56.11
39105;BME280;46464;51.154;13.812;2023-05-10T04:39:53;52075.94;;;-146.96;55.83
39105;BME280;46464;51.154;13.812;2023-05-10T04:42:20;52035.25;;;-146.96;55.71
39105;BME280;46464;51.154;13.812;2023-05-10T04:44:46;52031.16;;;-146.96;55.55
39105;BME280;46464;51.154;13.812;2023-05-10T04:47:12;52059.66;;;-146.96;55.75
39105;BME280;46464;51.154;13.812;2023-05-10T04:49:39;52016.94;;;-146.96;55.54
39105;BME280;46464;51.154;13.812;2023-05-10T04:52:06;51998.63;;;-146.96;55.65
39105;BME280;46464;51.154;13.812;2023-05-10T04:54:32;52031.16;;;-146.96;55.52
39105;BME280;46464;51.154;13.812;2023-05-10T04:56:59;52025.06;;;-146.96;55.46
39105;BME280;46464;51.154;13.812;2023-05-10T04:59:25;52000.66;;;-146.96;55.50
39105;BME280;46464;51.154;13.812;2023-05-10T05:01:52;52010.81;;;-146.96;55.18
39105;BME280;46464;51.154;13.812;2023-05-10T05:04:19;52012.84;;;-146.96;55.26
39105;BME280;46464;51.154;13.812;2023-05-10T05:06:45;52051.50;;;-146.96;55.04
39105;BME280;46464;51.154;13.812;2023-05-10T05:09:11;52023.03;;;-146.96;54.70
39105;BME280;46464;51.154;13.812;2023-05-10T05:11:38;52004.72;;;-146.96;54.69
39105;BME280;46464;51.154;13.812;2023-05-10T05:14:06;52041.34;;;-146.96;54.70
39105;BME280;46464;51.154;13.812;2023-05-10T05:16:32;51980.31;;;-146.96;54.64
39105;BME280;46464;51.154;13.812;2023-05-10T05:18:59;52033.19;;;-146.96;53.60
39105;BME280;46464;51.154;13.812;2023-05-10T05:21:26;51968.09;;;-146.96;52.03
39105;BME280;46464;51.154;13.812;2023-05-10T05:23:53;51986.41;;;-146.96;50.92
39105;BME280;46464;51.154;13.812;2023-05-10T05:26:19;51903.00;;;-146.96;48.93
39105;BME280;46464;51.154;13.812;2023-05-10T05:28:46;51866.38;;;-146.96;47.42
39105;BME280;46464;51.154;13.812;2023-05-10T05:31:14;51815.50;;;-146.96;45.05
39105;BME280;46464;51.154;13.812;2023-05-10T05:33:41;51801.25;;;-146.96;43.38
39105;BME280;46464;51.154;13.812;2023-05-10T05:36:07;51813.47;;;-146.96;43.08
39105;BME280;46464;51.154;13.812;2023-05-10T05:38:34;51774.81;;;-146.96;41.92
39105;BME280;46464;51.154;13.812;2023-05-10T05:41:00;51734.13;;;-146.96;41.05
39105;BME280;46464;51.154;13.812;2023-05-10T05:43:27;51717.84;;;-146.96;40.50
39105;BME280;46464;51.154;13.812;2023-05-10T05:45:53;51740.22;;;-146.96;39.97
39105;BME280;46464;51.154;13.812;2023-05-10T05:48:20;51703.63;;;-146.96;39.92
39105;BME280;46464;51.154;13.812;2023-05-10T05:50:47;51687.34;;;-146.96;39.13
39105;BME280;46464;51.154;13.812;2023-05-10T05:53:13;51664.97;;;-146.96;39.53
39105;BME280;46464;51.154;13.812;2023-05-10T05:55:39;51673.09;;;-146.96;38.45
39105;BME280;46464;51.154;13.812;2023-05-10T05:58:06;51675.13;;;-146.96;38.03
39105;BME280;46464;51.154;13.812;2023-05-10T06:00:32;51673.09;;;-146.96;38.17
39105;BME280;46464;51.154;13.812;2023-05-10T06:02:59;51646.66;;;-146.96;37.77
39105;BME280;46464;51.154;13.812;2023-05-10T06:05:26;51608.00;;;-146.96;37.55
39105;BME280;46464;51.154;13.812;2023-05-10T06:07:52;51603.94;;;-146.96;37.60
39105;BME280;46464;51.154;13.812;2023-05-10T06:10:18;51608.00;;;-146.96;36.84
39105;BME280;46464;51.154;13.812;2023-05-10T06:12:45;51549.00;;;-146.96;36.85
39105;BME280;46464;51.154;13.812;2023-05-10T06:15:12;51528.66;;;-146.96;36.41
39105;BME280;46464;51.154;13.812;2023-05-10T06:17:38;51549.00;;;-146.96;35.57
39105;BME280;46464;51.154;13.812;2023-05-10T06:20:06;51577.47;;;-146.96;36.28
39105;BME280;46464;51.154;13.812;2023-05-10T06:22:33;51555.09;;;-146.96;36.02
39105;BME280;46464;51.154;13.812;2023-05-10T06:25:00;51581.56;;;-146.96;36.31
39105;BME280;46464;51.154;13.812;2023-05-10T06:27:26;51599.84;;;-146.96;36.18
39105;BME280;46464;51.154;13.812;2023-05-10T06:29:53;51589.69;;;-146.96;36.34
39105;BME280;46464;51.154;13.812;2023-05-10T06:32:34;51589.69;;;-146.96;36.63
39105;BME280;46464;51.154;13.812;2023-05-10T06:35:01;51559.16;;;-146.96;36.33
39105;BME280;46464;51.154;13.812;2023-05-10T06:37:27;51518.47;;;-146.96;36.24
39105;BME280;46464;51.154;13.812;2023-05-10T06:39:54;51561.22;;;-146.96;36.33
39105;BME280;46464;51.154;13.812;2023-05-10T06:42:20;51573.41;;;-146.96;36.29
39105;BME280;46464;51.154;13.812;2023-05-10T06:44:47;51544.94;;;-146.96;36.57
39105;BME280;46464;51.154;13.812;2023-05-10T06:47:13;51522.56;;;-146.96;36.29
39105;BME280;46464;51.154;13.812;2023-05-10T06:49:40;51551.03;;;-146.96;36.16
39105;BME280;46464;51.154;13.812;2023-05-10T06:52:06;51581.56;;;-146.96;37.02
39105;BME280;46464;51.154;13.812;2023-05-10T06:54:33;51583.59;;;-146.96;36.73
39105;BME280;46464;51.154;13.812;2023-05-10T06:57:00;51540.88;;;-146.96;37.14
39105;BME280;46464;51.154;13.812;2023-05-10T06:59:32;51589.69;;;-146.96;36.64
39105;BME280;46464;51.154;13.812;2023-05-10T07:01:59;51557.13;;;-146.96;36.62
39105;BME280;46464;51.154;13.812;2023-05-10T07:04:25;51569.34;;;-146.96;36.88
39105;BME280;46464;51.154;13.812;2023-05-10T07:06:52;51595.78;;;-146.96;37.70
39105;BME280;46464;51.154;13.812;2023-05-10T07:09:19;51605.97;;;-146.96;37.16
39105;BME280;46464;51.154;13.812;2023-05-10T07:11:45;51630.38;;;-146.96;37.84
39105;BME280;46464;51.154;13.812;2023-05-10T07:14:12;51620.19;;;-146.96;37.84
39105;BME280;46464;51.154;13.812;2023-05-10T07:16:38;51624.28;;;-146.96;38.53
39105;BME280;46464;51.154;13.812;2023-05-10T07:19:05;51608.00;;;-146.96;38.50
39105;BME280;46464;51.154;13.812;2023-05-10T07:21:31;51593.75;;;-146.96;38.77
39105;BME280;46464;51.154;13.812;2023-05-10T07:23:58;51618.16;;;-146.96;38.51
39105;BME280;46464;51.154;13.812;2023-05-10T07:26:25;51626.31;;;-146.96;39.07
39105;BME280;46464;51.154;13.812;2023-05-10T07:28:52;51638.50;;;-146.96;38.74
39105;BME280;46464;51.154;13.812;2023-05-10T07:31:19;51642.59;;;-146.96;39.29
39105;BME280;46464;51.154;13.812;2023-05-10T07:33:45;51626.31;;;-146.96;39.59
39105;BME280;46464;51.154;13.812;2023-05-10T07:36:12;51648.69;;;-146.96;39.60
39105;BME280;46464;51.154;13.812;2023-05-10T07:38:38;51624.28;;;-146.96;39.95
39105;BME280;46464;51.154;13.812;2023-05-10T07:41:06;51632.41;;;-146.96;40.05
39105;BME280;46464;51.154;13.812;2023-05-10T07:43:32;51628.34;;;-146.96;40.29
39105;BME280;46464;51.154;13.812;2023-05-10T07:45:59;51671.06;;;-146.96;39.96
39105;BME280;46464;51.154;13.812;2023-05-10T07:48:25;51667.00;;;-146.96;40.22
39105;BME280;46464;51.154;13.812;2023-05-10T07:50:52;51636.47;;;-146.96;39.59
39105;BME280;46464;51.154;13.812;2023-05-10T07:53:18;51626.31;;;-146.96;40.32
39105;BME280;46464;51.154;13.812;2023-05-10T07:55:50;51644.63;;;-146.96;40.33
39105;BME280;46464;51.154;13.812;2023-05-10T07:58:17;51608.00;;;-146.96;40.39
39105;BME280;46464;51.154;13.812;2023-05-10T08:00:44;51642.59;;;-146.96;40.60
39105;BME280;46464;51.154;13.812;2023-05-10T08:03:10;51573.41;;;-146.96;39.57
39105;BME280;46464;51.154;13.812;2023-05-10T08:05:37;51573.41;;;-146.96;40.02
39105;BME280;46464;51.154;13.812;2023-05-10T08:08:03;51565.28;;;-146.96;39.85
39105;BME280;46464;51.154;13.812;2023-05-10T08:10:30;51624.28;;;-146.96;39.27
39105;BME280;46464;51.154;13.812;2023-05-10T08:12:59;51618.16;;;-146.96;40.35
39105;BME280;46464;51.154;13.812;2023-05-10T08:15:26;51575.44;;;-146.96;39.62
39105;BME280;46464;51.154;13.812;2023-05-10T08:17:52;51581.56;;;-146.96;39.24
39105;BME280;46464;51.154;13.812;2023-05-10T08:20:19;51622.25;;;-146.96;40.17
39105;BME280;46464;51.154;13.812;2023-05-10T08:22:45;51612.06;;;-146.96;42.09
39105;BME280;46464;51.154;13.812;2023-05-10T08:25:15;51589.69;;;-146.96;40.27
39105;BME280;46464;51.154;13.812;2023-05-10T08:27:42;51614.09;;;-146.96;38.89
39105;BME280;46464;51.154;13.812;2023-05-10T08:30:09;51581.56;;;-146.96;39.47
39105;BME280;46464;51.154;13.812;2023-05-10T08:32:35;51618.16;;;-146.96;40.75
39105;BME280;46464;51.154;13.812;2023-05-10T08:35:04;51563.25;;;-146.96;39.62
39105;BME280;46464;51.154;13.812;2023-05-10T08:37:31;51591.72;;;-146.96;39.83
39105;BME280;46464;51.154;13.812;2023-05-10T08:39:58;51561.22;;;-146.96;39.82
39105;BME280;46464;51.154;13.812;2023-05-10T08:42:25;51571.38;;;-146.96;38.95
39105;BME280;46464;51.154;13.812;2023-05-10T08:44:55;51595.78;;;-146.96;39.52
39105;BME280;46464;51.154;13.812;2023-05-10T08:47:23;51581.56;;;-146.96;40.68
39105;BME280;46464;51.154;13.812;2023-05-10T08:49:50;51610.03;;;-146.96;39.94
39105;BME280;46464;51.154;13.812;2023-05-10T08:52:17;51579.50;;;-146.96;40.83
39105;BME280;46464;51.154;13.812;2023-05-10T08:54:44;51565.28;;;-146.96;39.91
39105;BME280;46464;51.154;13.812;2023-05-10T09:00:07;51555.09;;;-146.96;39.48
39105;BME280;46464;51.154;13.812;2023-05-10T09:02:35;51524.59;;;-146.96;39.19
39105;BME280;46464;51.154;13.812;2023-05-10T09:05:03;51524.59;;;-146.96;39.24
39105;BME280;46464;51.154;13.812;2023-05-10T09:07:31;51502.22;;;-146.96;38.81
39105;BME280;46464;51.154;13.812;2023-05-10T09:10:00;51569.34;;;-146.96;38.68
39105;BME280;46464;51.154;13.812;2023-05-10T09:12:27;51522.56;;;-146.96;39.38
39105;BME280;46464;51.154;13.812;2023-05-10T09:14:53;51538.81;;;-146.96;38.37
39105;BME280;46464;51.154;13.812;2023-05-10T09:17:22;51569.34;;;-146.96;38.85
39105;BME280;46464;51.154;13.812;2023-05-10T09:19:49;51542.91;;;-146.96;39.32
39105;BME280;46464;51.154;13.812;2023-05-10T09:22:16;51510.34;;;-146.96;38.55
39105;BME280;46464;51.154;13.812;2023-05-10T09:24:43;51510.34;;;-146.96;39.16
39105;BME280;46464;51.154;13.812;2023-05-10T09:27:11;51471.69;;;-146.96;39.07
39105;BME280;46464;51.154;13.812;2023-05-10T09:29:42;51479.84;;;-146.96;37.74
39105;BME280;46464;51.154;13.812;2023-05-10T09:32:09;51485.94;;;-146.96;37.86
39105;BME280;46464;51.154;13.812;2023-05-10T09:34:35;51469.66;;;-146.96;37.94
39105;BME280;46464;51.154;13.812;2023-05-10T09:37:06;51469.66;;;-146.96;37.64
39105;BME280;46464;51.154;13.812;2023-05-10T09:39:33;51437.13;;;-146.96;37.71
39105;BME280;46464;51.154;13.812;2023-05-10T09:42:02;51422.88;;;-146.96;38.45
39105;BME280;46464;51.154;13.812;2023-05-10T09:44:31;51439.16;;;-146.96;37.37
39105;BME280;46464;51.154;13.812;2023-05-10T09:47:02;51469.66;;;-146.96;36.44
39105;BME280;46464;51.154;13.812;2023-05-10T09:49:29;51463.56;;;-146.96;36.78
39105;BME280;46464;51.154;13.812;2023-05-10T09:52:06;51451.34;;;-146.96;37.71
39105;BME280;46464;51.154;13.812;2023-05-10T09:54:34;51435.09;;;-146.96;36.98
39105;BME280;46464;51.154;13.812;2023-05-10T09:57:00;51431.00;;;-146.96;37.12
39105;BME280;46464;51.154;13.812;2023-05-10T09:59:28;51463.56;;;-146.96;36.82
39105;BME280;46464;51.154;13.812;2023-05-10T10:01:59;51433.03;;;-146.96;36.70
39105;BME280;46464;51.154;13.812;2023-05-10T10:04:27;51459.50;;;-146.96;37.26
39105;BME280;46464;51.154;13.812;2023-05-10T10:07:04;51398.47;;;-146.96;36.93
39105;BME280;46464;51.154;13.812;2023-05-10T10:09:32;51398.47;;;-146.96;35.92
39105;BME280;46464;51.154;13.812;2023-05-10T10:12:01;51390.31;;;-146.96;36.25
39105;BME280;46464;51.154;13.812;2023-05-10T10:14:31;51414.75;;;-146.96;35.75
39105;BME280;46464;51.154;13.812;2023-05-10T10:17:00;51420.84;;;-146.96;35.63
39105;BME280;46464;51.154;13.812;2023-05-10T10:19:35;51396.44;;;-146.96;35.73
39105;BME280;46464;51.154;13.812;2023-05-10T10:22:02;51402.53;;;-146.96;37.12
39105;BME280;46464;51.154;13.812;2023-05-10T10:24:29;51400.50;;;-146.96;36.58
39105;BME280;46464;51.154;13.812;2023-05-10T10:27:02;51390.31;;;-146.96;35.60
39105;BME280;46464;51.154;13.812;2023-05-10T10:29:59;51388.28;;;-146.96;35.05
39105;BME280;46464;51.154;13.812;2023-05-10T10:35:15;51398.47;;;-146.96;34.87
39105;BME280;46464;51.154;13.812;2023-05-10T10:37:47;51443.22;;;-146.96;36.00
39105;BME280;46464;51.154;13.812;2023-05-10T10:40:23;51384.22;;;-146.96;36.37
39105;BME280;46464;51.154;13.812;2023-05-10T10:42:51;51386.25;;;-146.96;36.14
39105;BME280;46464;51.154;13.812;2023-05-10T10:45:18;51382.19;;;-146.96;35.34
39105;BME280;46464;51.154;13.812;2023-05-10T10:47:45;51420.84;;;-146.96;36.19
39105;BME280;46464;51.154;13.812;2023-05-10T10:50:11;51414.75;;;-146.96;36.29
39105;BME280;46464;51.154;13.812;2023-05-10T10:52:43;51355.75;;;-146.96;35.26
39105;BME280;46464;51.154;13.812;2023-05-10T10:55:20;51367.94;;;-146.96;35.49
39105;BME280;46464;51.154;13.812;2023-05-10T10:57:53;51353.72;;;-146.96;35.35
39105;BME280;46464;51.154;13.812;2023-05-10T11:00:32;51378.13;;;-146.96;35.25
39105;BME280;46464;51.154;13.812;2023-05-10T11:03:14;51406.59;;;-146.96;35.00
39105;BME280;46464;51.154;13.812;2023-05-10T11:05:49;51400.50;;;-146.96;35.27
39105;BME280;46464;51.154;13.812;2023-05-10T11:08:30;51378.13;;;-146.96;35.99
39105;BME280;46464;51.154;13.812;2023-05-10T11:13:32;51372.03;;;-146.96;36.08
39105;BME280;46464;51.154;13.812;2023-05-10T11:16:09;51382.19;;;-146.96;36.18
39105;BME280;46464;51.154;13.812;2023-05-10T11:18:37;51353.72;;;-146.96;35.94
39105;BME280;46464;51.154;13.812;2023-05-10T11:21:04;51400.50;;;-146.96;35.39
39105;BME280;46464;51.154;13.812;2023-05-10T11:26:14;51386.25;;;-146.96;36.46
39105;BME280;46464;51.154;13.812;2023-05-10T11:28:41;51380.16;;;-146.96;36.41
39105;BME280;46464;51.154;13.812;2023-05-10T11:31:08;51412.69;;;-146.96;36.29
39105;BME280;46464;51.154;13.812;2023-05-10T11:33:48;51349.63;;;-146.96;36.22
39105;BME280;46464;51.154;13.812;2023-05-10T11:36:19;51431.00;;;-146.96;35.17
39105;BME280;46464;51.154;13.812;2023-05-10T11:38:47;51435.09;;;-146.96;36.39
39105;BME280;46464;51.154;13.812;2023-05-10T11:41:16;51410.66;;;-146.96;35.53
39105;BME280;46464;51.154;13.812;2023-05-10T11:43:45;51404.56;;;-146.96;35.05
39105;BME280;46464;51.154;13.812;2023-05-10T11:46:13;51372.03;;;-146.96;35.19
39105;BME280;46464;51.154;13.812;2023-05-10T11:48:40;51361.84;;;-146.96;35.46
39105;BME280;46464;51.154;13.812;2023-05-10T11:51:10;51357.78;;;-146.96;35.46
39105;BME280;46464;51.154;13.812;2023-05-10T11:53:37;51374.06;;;-146.96;35.72
39105;BME280;46464;51.154;13.812;2023-05-10T11:56:05;51396.44;;;-146.96;34.16
39105;BME280;46464;51.154;13.812;2023-05-10T11:58:32;51388.28;;;-146.96;34.72
39105;BME280;46464;51.154;13.812;2023-05-10T12:00:59;51345.56;;;-146.96;35.85
39105;BME280;46464;51.154;13.812;2023-05-10T12:03:27;51400.50;;;-146.96;35.98
39105;BME280;46464;51.154;13.812;2023-05-10T12:05:55;51341.50;;;-146.96;34.95
39105;BME280;46464;51.154;13.812;2023-05-10T12:08:23;51353.72;;;-146.96;34.71
39105;BME280;46464;51.154;13.812;2023-05-10T12:10:51;51380.16;;;-146.96;35.31
39105;BME280;46464;51.154;13.812;2023-05-10T12:13:19;51353.72;;;-146.96;35.11
39105;BME280;46464;51.154;13.812;2023-05-10T12:15:46;51357.78;;;-146.96;34.57
39105;BME280;46464;51.154;13.812;2023-05-10T12:18:13;51349.63;;;-146.96;32.83
39105;BME280;46464;51.154;13.812;2023-05-10T12:20:41;51367.94;;;-146.96;33.52
39105;BME280;46464;51.154;13.812;2023-05-10T12:23:09;51372.03;;;-146.96;33.66
39105;BME280;46464;51.154;13.812;2023-05-10T12:25:37;51361.84;;;-146.96;33.53
39105;BME280;46464;51.154;13.812;2023-05-10T12:28:08;51349.63;;;-146.96;34.42
39105;BME280;46464;51.154;13.812;2023-05-10T12:30:36;51384.22;;;-146.96;34.36
39105;BME280;46464;51.154;13.812;2023-05-10T12:33:11;51402.53;;;-146.96;33.90
39105;BME280;46464;51.154;13.812;2023-05-10T12:35:52;51361.84;;;-146.96;34.27
39105;BME280;46464;51.154;13.812;2023-05-10T12:40:58;51422.88;;;-146.96;34.33
39105;BME280;46464;51.154;13.812;2023-05-10T12:43:25;51378.13;;;-146.96;34.31
39105;BME280;46464;51.154;13.812;2023-05-10T12:45:52;51396.44;;;-146.96;34.88
39105;BME280;46464;51.154;13.812;2023-05-10T12:48:19;51394.41;;;-146.96;33.90
39105;BME280;46464;51.154;13.812;2023-05-10T12:50:46;51384.22;;;-146.96;35.30
39105;BME280;46464;51.154;13.812;2023-05-10T12:53:16;51390.31;;;-146.96;34.31
39105;BME280;46464;51.154;13.812;2023-05-10T12:55:43;51392.34;;;-146.96;34.92
39105;BME280;46464;51.154;13.812;2023-05-10T12:58:10;51406.59;;;-146.96;34.27
39105;BME280;46464;51.154;13.812;2023-05-10T13:00:46;51412.69;;;-146.96;34.81